Time;durP1;ratioP1;P1;durP2;ratioP2;P2;SDS_P1;SDS_P2;PMS_P1;PMS_P2;Temp;Humidity;BMP_temperature;BMP_pressure;BME280_temperature;BME280_humidity;BME280_pressure;Samples;Min_cycle;Max_cycle;Signal;HPM_P1;HPM_P2
2022/01/23 00:00:04;;;;;;;;;;;18.20;48.60;;;;;;5092656;28;19912;-64
2022/01/23 00:02:31;;;;;;;;;;;18.10;48.50;;;;;;5089813;28;19912;-64
2022/01/23 00:04:57;;;;;;;;;;;18.10;48.70;;;;;;5090674;28;19912;-64
2022/01/23 00:07:22;;;;;;;;;;;18.10;48.60;;;;;;5092052;28;19909;-64
2022/01/23 00:09:48;;;;;;;;;;;18.10;48.60;;;;;;5069365;28;20278;-63
2022/01/23 00:12:20;;;;;;;;;;;18.00;48.50;;;;;;5085545;28;19962;-65
2022/01/23 00:17:34;;;;;;;;;;;18.00;48.50;;;;;;5091501;28;20017;-63
2022/01/23 00:19:59;;;;;;;;;;;18.00;48.60;;;;;;5075967;28;19931;-63
2022/01/23 00:22:33;;;;;;;;;;;18.00;48.70;;;;;;5090698;28;19908;-63
2022/01/23 00:30:29;;;;;;;;;;;18.00;48.70;;;;;;5090186;28;19935;-63
2022/01/23 00:32:55;;;;;;;;;;;18.00;48.70;;;;;;5090297;28;20023;-63
2022/01/23 00:35:21;;;;;;;;;;;17.90;48.70;;;;;;5091922;28;19908;-63
2022/01/23 00:37:46;;;;;;;;;;;17.90;48.80;;;;;;5091313;28;19919;-63
2022/01/23 00:40:12;;;;;;;;;;;17.90;48.80;;;;;;5090097;28;20265;-63
2022/01/23 00:42:37;;;;;;;;;;;17.90;48.80;;;;;;5093469;28;19912;-63
2022/01/23 00:45:52;;;;;;;;;;;17.80;48.70;;;;;;5095399;28;19912;-63
2022/01/23 00:47:50;;;;;;;;;;;17.80;48.80;;;;;;5083604;27;19926;-63
2022/01/23 00:50:16;;;;;;;;;;;17.80;48.80;;;;;;5077462;28;19957;-64
2022/01/23 00:52:41;;;;;;;;;;;17.80;48.90;;;;;;5093679;28;19916;-64
2022/01/23 00:55:07;;;;;;;;;;;17.80;48.90;;;;;;5093040;28;19916;-64
2022/01/23 00:57:33;;;;;;;;;;;17.70;48.90;;;;;;5094138;28;19908;-63
2022/01/23 01:00:06;;;;;;;;;;;17.70;49.00;;;;;;5093346;28;20006;-63
2022/01/23 01:02:31;;;;;;;;;;;17.70;49.00;;;;;;5072953;28;20011;-64
2022/01/23 01:04:57;;;;;;;;;;;17.70;49.00;;;;;;5093234;28;19995;-64
2022/01/23 01:07:22;;;;;;;;;;;17.70;49.00;;;;;;5076420;28;19918;-64
2022/01/23 01:09:50;;;;;;;;;;;17.70;49.00;;;;;;5089710;28;19972;-64
2022/01/23 01:12:23;;;;;;;;;;;17.70;49.10;;;;;;5090114;28;19909;-64
2022/01/23 01:30:11;;;;;;;;;;;17.60;49.20;;;;;;5095493;28;19912;-64
2022/01/23 01:31:20;;;;;;;;;;;17.60;49.20;;;;;;5093162;28;19919;-63
2022/01/23 01:38:42;;;;;;;;;;;17.50;49.20;;;;;;5094116;28;20386;-63
2022/01/23 01:41:08;;;;;;;;;;;17.50;49.10;;;;;;5092712;28;19912;-63
2022/01/23 01:43:33;;;;;;;;;;;17.50;49.20;;;;;;5093170;28;19942;-63
2022/01/23 01:45:59;;;;;;;;;;;17.50;49.20;;;;;;5110163;28;19955;-64
2022/01/23 01:48:25;;;;;;;;;;;17.50;49.30;;;;;;5092991;28;19912;-64
2022/01/23 01:50:53;;;;;;;;;;;17.40;49.30;;;;;;5126121;27;20348;-63
2022/01/23 01:53:19;;;;;;;;;;;17.40;49.30;;;;;;5093423;28;20311;-64
2022/01/23 01:55:49;;;;;;;;;;;17.40;49.30;;;;;;5093339;28;19914;-63
2022/01/23 02:01:01;;;;;;;;;;;17.40;49.20;;;;;;5099548;28;19908;-63
2022/01/23 02:08:56;;;;;;;;;;;17.40;49.30;;;;;;5092965;28;19916;-63
2022/01/23 02:11:36;;;;;;;;;;;17.40;49.30;;;;;;5092774;28;19920;-64
2022/01/23 02:14:30;;;;;;;;;;;17.40;49.30;;;;;;5098685;28;19919;-63
2022/01/23 02:17:41;;;;;;;;;;;17.40;49.30;;;;;;5093350;28;19912;-63
2022/01/23 02:54:58;;;;;;;;;;;18.30;47.30;;;;;;5096778;28;19966;-63
2022/01/23 02:57:47;;;;;;;;;;;18.40;47.30;;;;;;5092419;28;19940;-64
2022/01/23 03:00:15;;;;;;;;;;;18.40;47.10;;;;;;5104521;27;19912;-64
2022/01/23 03:02:45;;;;;;;;;;;18.50;47.10;;;;;;5091144;28;19999;-64
2022/01/23 03:05:24;;;;;;;;;;;18.60;47.00;;;;;;5090766;28;19919;-64
2022/01/23 03:08:05;;;;;;;;;;;18.60;46.90;;;;;;5098127;28;19920;-64
2022/01/23 03:10:47;;;;;;;;;;;18.60;46.80;;;;;;5092433;28;19908;-63
2022/01/23 03:16:18;;;;;;;;;;;18.70;46.80;;;;;;5091732;28;19914;-64
2022/01/23 03:24:33;;;;;;;;;;;18.70;46.60;;;;;;5092051;28;19934;-64
2022/01/23 03:32:25;;;;;;;;;;;18.80;46.60;;;;;;5097976;28;19942;-64
2022/01/23 03:34:51;;;;;;;;;;;18.80;46.50;;;;;;5091283;28;19912;-64
2022/01/23 03:37:16;;;;;;;;;;;18.80;46.50;;;;;;5091041;28;20006;-63
2022/01/23 03:39:42;;;;;;;;;;;18.90;46.50;;;;;;5090747;28;20331;-63
2022/01/23 03:42:07;;;;;;;;;;;18.90;46.50;;;;;;5090613;28;20299;-63
2022/01/23 03:44:38;;;;;;;;;;;18.90;46.40;;;;;;5090627;28;19920;-64
2022/01/23 03:47:36;;;;;;;;;;;18.90;46.40;;;;;;5124533;28;20399;-64
2022/01/23 03:50:01;;;;;;;;;;;18.90;46.40;;;;;;5091810;28;19919;-64
2022/01/23 03:52:26;;;;;;;;;;;18.90;46.40;;;;;;5091765;28;19912;-64
2022/01/23 03:54:52;;;;;;;;;;;18.90;46.30;;;;;;5091864;28;19961;-64
2022/01/23 03:57:18;;;;;;;;;;;18.90;46.30;;;;;;5090364;28;20380;-64
2022/01/23 03:59:43;;;;;;;;;;;18.90;46.30;;;;;;5092326;28;19912;-64
2022/01/23 04:02:09;;;;;;;;;;;18.90;46.20;;;;;;5091974;28;19927;-64
2022/01/23 04:04:41;;;;;;;;;;;18.90;46.20;;;;;;5090857;28;20372;-64
2022/01/23 04:07:12;;;;;;;;;;;18.90;46.30;;;;;;5090506;28;19912;-64
2022/01/23 04:09:38;;;;;;;;;;;18.90;46.40;;;;;;5090562;28;19915;-64
2022/01/23 04:12:05;;;;;;;;;;;18.90;46.50;;;;;;5089851;28;19916;-64
2022/01/23 04:14:32;;;;;;;;;;;18.80;46.50;;;;;;5090870;28;19912;-63
2022/01/23 04:18:02;;;;;;;;;;;18.80;46.50;;;;;;5095617;28;20275;-64
2022/01/23 05:00:32;;;;;;;;;;;18.90;46.40;;;;;;5094695;28;19927;-64
2022/01/23 05:05:37;;;;;;;;;;;18.90;46.40;;;;;;5102231;28;20038;-64
2022/01/23 05:08:05;;;;;;;;;;;18.90;46.30;;;;;;5094469;28;20416;-64
2022/01/23 05:10:31;;;;;;;;;;;18.90;46.30;;;;;;5126851;27;19919;-63
2022/01/23 05:12:56;;;;;;;;;;;18.90;46.30;;;;;;5093041;28;19909;-64
2022/01/23 05:15:22;;;;;;;;;;;19.00;46.30;;;;;;5094736;28;20383;-63
2022/01/23 05:17:48;;;;;;;;;;;19.00;46.30;;;;;;5095282;28;20322;-64
2022/01/23 05:20:15;;;;;;;;;;;19.00;46.30;;;;;;5093643;28;20455;-64
2022/01/23 05:22:50;;;;;;;;;;;19.00;46.20;;;;;;5127293;27;19934;-64
2022/01/23 05:27:41;;;;;;;;;;;19.00;46.30;;;;;;5093901;28;19908;-64
2022/01/23 05:30:06;;;;;;;;;;;19.00;46.20;;;;;;5094122;28;20380;-64
2022/01/23 05:32:36;;;;;;;;;;;19.00;46.20;;;;;;5092819;28;20295;-64
2022/01/23 05:35:01;;;;;;;;;;;19.00;46.20;;;;;;5073137;28;20479;-64
2022/01/23 05:37:27;;;;;;;;;;;19.00;46.20;;;;;;5084320;28;20010;-64
2022/01/23 05:39:52;;;;;;;;;;;19.00;46.20;;;;;;5109726;28;19960;-64
2022/01/23 05:42:17;;;;;;;;;;;19.10;46.30;;;;;;5092796;28;19908;-64
2022/01/23 05:44:43;;;;;;;;;;;19.10;46.30;;;;;;5093137;28;19939;-64
2022/01/23 05:47:09;;;;;;;;;;;19.10;46.20;;;;;;5126299;27;19916;-64
2022/01/23 05:49:35;;;;;;;;;;;19.10;46.20;;;;;;5093147;28;19916;-64
2022/01/23 05:52:01;;;;;;;;;;;19.10;46.20;;;;;;5092436;28;20007;-64
2022/01/23 05:54:27;;;;;;;;;;;19.10;46.20;;;;;;5093164;28;19916;-64
2022/01/23 05:56:52;;;;;;;;;;;19.10;46.30;;;;;;5072385;28;19908;-64
2022/01/23 05:59:18;;;;;;;;;;;19.10;46.30;;;;;;5072982;28;19917;-64
2022/01/23 06:01:43;;;;;;;;;;;19.10;46.30;;;;;;5084388;28;19968;-64
2022/01/23 06:04:09;;;;;;;;;;;19.10;46.30;;;;;;5091858;28;20436;-64
2022/01/23 06:06:34;;;;;;;;;;;19.10;46.30;;;;;;5092236;28;19908;-64
2022/01/23 06:09:00;;;;;;;;;;;19.10;46.30;;;;;;5093532;28;20006;-64
2022/01/23 06:11:25;;;;;;;;;;;19.10;46.30;;;;;;5092259;28;19985;-64
2022/01/23 06:13:51;;;;;;;;;;;19.00;46.10;;;;;;5092619;28;19916;-64
2022/01/23 06:16:16;;;;;;;;;;;19.10;46.20;;;;;;5125041;27;19954;-65
2022/01/23 06:18:43;;;;;;;;;;;19.10;46.20;;;;;;5092259;28;19915;-64
2022/01/23 06:21:09;;;;;;;;;;;19.10;46.20;;;;;;5091431;28;20384;-64
2022/01/23 06:23:35;;;;;;;;;;;19.10;46.30;;;;;;5093461;28;19908;-64
2022/01/23 06:26:00;;;;;;;;;;;19.10;46.30;;;;;;5093066;28;19912;-64
2022/01/23 06:28:29;;;;;;;;;;;19.10;46.20;;;;;;5092456;28;19908;-64
2022/01/23 06:30:54;;;;;;;;;;;19.10;46.30;;;;;;5093088;28;19961;-64
2022/01/23 06:33:20;;;;;;;;;;;19.10;46.30;;;;;;5091101;28;20376;-64
2022/01/23 06:35:45;;;;;;;;;;;19.10;46.20;;;;;;5092279;28;20373;-64
2022/01/23 06:38:11;;;;;;;;;;;19.10;46.20;;;;;;5091582;28;20296;-64
2022/01/23 06:40:36;;;;;;;;;;;19.10;46.20;;;;;;5125492;27;19931;-63
2022/01/23 06:43:02;;;;;;;;;;;19.10;46.20;;;;;;5092833;28;19916;-64
2022/01/23 06:45:27;;;;;;;;;;;19.10;46.10;;;;;;5092405;28;19964;-64
2022/01/23 06:47:53;;;;;;;;;;;19.10;46.10;;;;;;5125647;27;19916;-63
2022/01/23 06:50:18;;;;;;;;;;;19.10;46.20;;;;;;5092126;28;19919;-63
2022/01/23 06:52:44;;;;;;;;;;;19.10;46.10;;;;;;5093294;28;19919;-64
2022/01/23 06:55:09;;;;;;;;;;;19.10;46.10;;;;;;5092069;28;20298;-64
2022/01/23 06:57:35;;;;;;;;;;;19.10;46.10;;;;;;5093131;28;20347;-65
2022/01/23 07:00:01;;;;;;;;;;;19.10;46.10;;;;;;5092475;28;19912;-64
2022/01/23 07:02:26;;;;;;;;;;;19.10;46.10;;;;;;5091215;28;19913;-64
2022/01/23 07:04:51;;;;;;;;;;;19.10;46.70;;;;;;5092967;28;19908;-65
2022/01/23 07:07:17;;;;;;;;;;;19.10;46.10;;;;;;5092791;28;20015;-64
2022/01/23 07:09:42;;;;;;;;;;;19.20;46.10;;;;;;5092450;28;19908;-64
2022/01/23 07:12:08;;;;;;;;;;;19.20;46.10;;;;;;5124649;27;19912;-64
2022/01/23 07:14:33;;;;;;;;;;;19.10;46.00;;;;;;5092129;28;19965;-64
2022/01/23 07:16:59;;;;;;;;;;;19.10;46.10;;;;;;5090963;28;19920;-64
2022/01/23 07:19:24;;;;;;;;;;;19.20;46.10;;;;;;5107663;28;20293;-64
2022/01/23 07:21:50;;;;;;;;;;;19.20;46.10;;;;;;5092827;28;20003;-64
2022/01/23 07:24:15;;;;;;;;;;;19.10;46.00;;;;;;5091666;28;19912;-64
2022/01/23 07:26:41;;;;;;;;;;;19.20;46.10;;;;;;5091316;28;19916;-64
2022/01/23 07:29:07;;;;;;;;;;;19.20;46.10;;;;;;5090669;28;19912;-64
2022/01/23 07:33:59;;;;;;;;;;;19.20;46.10;;;;;;5092934;28;19919;-63
2022/01/23 07:36:25;;;;;;;;;;;19.20;46.10;;;;;;5090905;28;19916;-64
2022/01/23 07:38:50;;;;;;;;;;;19.20;46.10;;;;;;5107748;28;19920;-64
2022/01/23 07:41:15;;;;;;;;;;;19.20;46.10;;;;;;5090691;28;20388;-64
2022/01/23 07:43:41;;;;;;;;;;;19.20;46.10;;;;;;5092327;28;19908;-65
2022/01/23 07:46:06;;;;;;;;;;;19.20;46.10;;;;;;5090630;28;19923;-64
2022/01/23 07:48:32;;;;;;;;;;;19.20;46.10;;;;;;5090420;28;19912;-64
2022/01/23 07:50:57;;;;;;;;;;;19.20;46.10;;;;;;5088769;28;19958;-64
2022/01/23 07:53:23;;;;;;;;;;;19.20;46.10;;;;;;5092368;28;19973;-64
2022/01/23 07:55:49;;;;;;;;;;;19.20;46.10;;;;;;5089484;28;19916;-64
2022/01/23 07:58:15;;;;;;;;;;;19.20;46.10;;;;;;5092416;28;19919;-64
2022/01/23 08:00:41;;;;;;;;;;;19.20;46.10;;;;;;5090672;28;19991;-64
2022/01/23 08:03:06;;;;;;;;;;;19.20;46.10;;;;;;5089652;28;19912;-64
2022/01/23 08:05:32;;;;;;;;;;;19.20;46.10;;;;;;5088378;28;19916;-64
2022/01/23 08:07:58;;;;;;;;;;;19.20;46.10;;;;;;5090550;28;20360;-65
2022/01/23 08:10:23;;;;;;;;;;;19.20;46.10;;;;;;5090929;28;19913;-64
2022/01/23 08:12:49;;;;;;;;;;;19.20;46.10;;;;;;5090975;28;19916;-63
2022/01/23 08:15:15;;;;;;;;;;;19.20;46.10;;;;;;5091287;28;19916;-63
2022/01/23 08:17:40;;;;;;;;;;;19.20;46.10;;;;;;5092138;28;19920;-64
2022/01/23 08:20:06;;;;;;;;;;;19.20;46.10;;;;;;5094956;28;19927;-64
2022/01/23 08:22:32;;;;;;;;;;;19.20;46.10;;;;;;5092247;28;19997;-64
2022/01/23 08:24:58;;;;;;;;;;;19.20;46.10;;;;;;5090564;28;19909;-64
2022/01/23 08:27:24;;;;;;;;;;;19.20;46.10;;;;;;5078216;28;19925;-65
2022/01/23 08:29:49;;;;;;;;;;;19.20;46.00;;;;;;5054656;28;19962;-65
2022/01/23 08:32:15;;;;;;;;;;;19.20;46.10;;;;;;5098020;28;19908;-63
2022/01/23 08:34:40;;;;;;;;;;;19.20;46.10;;;;;;5093844;28;20372;-64
2022/01/23 08:37:06;;;;;;;;;;;19.30;46.10;;;;;;5086755;28;20384;-65
2022/01/23 08:39:35;;;;;;;;;;;19.20;46.00;;;;;;5101432;28;20291;-64
2022/01/23 08:42:01;;;;;;;;;;;19.20;46.10;;;;;;5111155;28;19907;-64
2022/01/23 08:44:27;;;;;;;;;;;19.20;46.10;;;;;;5095171;27;19916;-64
2022/01/23 08:46:53;;;;;;;;;;;19.30;46.10;;;;;;5090735;28;19953;-64
2022/01/23 08:49:19;;;;;;;;;;;19.30;46.10;;;;;;5089841;28;20385;-64
2022/01/23 08:51:44;;;;;;;;;;;19.30;46.10;;;;;;5073266;28;19923;-64
2022/01/23 08:54:10;;;;;;;;;;;19.30;46.10;;;;;;5093642;28;20296;-64
2022/01/23 08:56:35;;;;;;;;;;;19.30;46.20;;;;;;5092203;28;19955;-64
2022/01/23 08:59:01;;;;;;;;;;;19.30;46.20;;;;;;5091482;28;19919;-65
2022/01/23 09:01:27;;;;;;;;;;;19.30;46.20;;;;;;5090136;28;19916;-64
2022/01/23 09:03:52;;;;;;;;;;;19.30;46.20;;;;;;5094515;28;19909;-64
2022/01/23 09:06:18;;;;;;;;;;;19.30;46.20;;;;;;5094601;28;20007;-64
2022/01/23 09:08:43;;;;;;;;;;;19.30;46.30;;;;;;5093585;28;19912;-64
2022/01/23 09:11:23;;;;;;;;;;;19.20;46.20;;;;;;5093477;28;19958;-64
2022/01/23 09:16:14;;;;;;;;;;;19.30;46.40;;;;;;5092398;28;20304;-64
2022/01/23 09:18:39;;;;;;;;;;;19.30;46.40;;;;;;5092861;28;19920;-65
2022/01/23 09:21:05;;;;;;;;;;;19.30;46.40;;;;;;5095111;28;20011;-64
2022/01/23 09:23:30;;;;;;;;;;;19.30;46.40;;;;;;5092635;28;19908;-64
2022/01/23 09:25:58;;;;;;;;;;;19.30;46.40;;;;;;5088894;28;20008;-64
2022/01/23 09:28:30;;;;;;;;;;;19.30;46.50;;;;;;5093491;28;19908;-64
2022/01/23 09:30:56;;;;;;;;;;;19.30;47.10;;;;;;5100729;28;19915;-65
2022/01/23 09:33:21;;;;;;;;;;;19.30;46.50;;;;;;5093818;28;19912;-64
2022/01/23 09:35:47;;;;;;;;;;;19.20;46.40;;;;;;5126899;27;19915;-64
2022/01/23 09:38:12;;;;;;;;;;;19.30;46.50;;;;;;5093472;28;20002;-64
2022/01/23 09:40:39;;;;;;;;;;;19.30;46.50;;;;;;5092246;28;20009;-63
2022/01/23 09:43:08;;;;;;;;;;;19.30;46.70;;;;;;5075958;28;19998;-64
2022/01/23 09:45:34;;;;;;;;;;;19.30;46.70;;;;;;5093800;28;19999;-64
2022/01/23 09:48:03;;;;;;;;;;;19.30;46.70;;;;;;5094519;28;20435;-63
2022/01/23 09:50:28;;;;;;;;;;;19.30;46.70;;;;;;5093668;28;19915;-63
2022/01/23 09:52:54;;;;;;;;;;;19.30;46.70;;;;;;5094442;28;19915;-63
2022/01/23 09:55:20;;;;;;;;;;;19.30;46.70;;;;;;5091807;28;19916;-63
2022/01/23 09:57:47;;;;;;;;;;;19.30;46.70;;;;;;5093659;28;19912;-62
2022/01/23 10:00:16;;;;;;;;;;;19.30;46.70;;;;;;5073571;28;19916;-64
2022/01/23 10:02:42;;;;;;;;;;;19.20;46.70;;;;;;5094275;28;19919;-64
2022/01/23 10:05:08;;;;;;;;;;;19.20;46.90;;;;;;5109828;28;20352;-64
2022/01/23 10:07:37;;;;;;;;;;;19.10;47.00;;;;;;5109831;28;20395;-63
2022/01/23 10:10:10;;;;;;;;;;;19.10;47.20;;;;;;5092440;28;19996;-63
2022/01/23 10:12:42;;;;;;;;;;;19.10;47.30;;;;;;5075301;28;20277;-64
2022/01/23 10:15:08;;;;;;;;;;;19.00;47.50;;;;;;5085304;28;19995;-63
2022/01/23 10:17:34;;;;;;;;;;;18.90;47.70;;;;;;5089742;28;20053;-63
2022/01/23 10:20:00;;;;;;;;;;;18.90;48.00;;;;;;5044014;28;19924;-63
2022/01/23 10:22:25;;;;;;;;;;;18.80;48.00;;;;;;5049197;28;19916;-63
2022/01/23 10:24:51;;;;;;;;;;;18.70;48.10;;;;;;5065513;28;19915;-63
2022/01/23 10:27:17;;;;;;;;;;;18.70;48.40;;;;;;5041929;28;20003;-64
2022/01/23 10:29:46;;;;;;;;;;;18.70;48.60;;;;;;5035444;28;19909;-63
2022/01/23 10:32:20;;;;;;;;;;;18.60;48.60;;;;;;5052039;28;19909;-64
2022/01/23 10:34:55;;;;;;;;;;;18.60;48.70;;;;;;5058954;28;20019;-64
2022/01/23 10:37:28;;;;;;;;;;;18.60;48.90;;;;;;5035478;28;19908;-63
2022/01/23 10:39:54;;;;;;;;;;;18.60;49.00;;;;;;5051495;28;19919;-63
2022/01/23 10:47:56;;;;;;;;;;;18.40;49.20;;;;;;5080646;28;20323;-63
2022/01/23 10:50:22;;;;;;;;;;;18.40;49.30;;;;;;5067829;28;20377;-63
2022/01/23 10:52:48;;;;;;;;;;;18.40;49.30;;;;;;5085516;28;19960;-63
2022/01/23 10:55:20;;;;;;;;;;;18.40;49.30;;;;;;5084767;28;20013;-64
2022/01/23 10:57:50;;;;;;;;;;;18.40;49.30;;;;;;5052968;28;20400;-64
2022/01/23 11:00:25;;;;;;;;;;;18.40;49.30;;;;;;5051552;28;19951;-63
2022/01/23 11:02:50;;;;;;;;;;;18.40;49.40;;;;;;5051670;28;19916;-63
2022/01/23 11:05:18;;;;;;;;;;;18.40;49.40;;;;;;5051473;28;19908;-63
2022/01/23 11:07:44;;;;;;;;;;;18.40;49.50;;;;;;5052833;28;19909;-64
2022/01/23 11:10:11;;;;;;;;;;;18.30;49.50;;;;;;5050927;28;19917;-64
2022/01/23 11:18:04;;;;;;;;;;;18.30;49.50;;;;;;5051686;28;19915;-64
2022/01/23 11:20:39;;;;;;;;;;;18.30;49.40;;;;;;5088997;28;20451;-64
2022/01/23 11:23:18;;;;;;;;;;;18.40;49.50;;;;;;5074642;28;19922;-63
2022/01/23 11:26:03;;;;;;;;;;;18.30;49.40;;;;;;5090234;28;20395;-64
2022/01/23 11:28:37;;;;;;;;;;;18.30;49.50;;;;;;5085143;28;20380;-63
2022/01/23 11:31:04;;;;;;;;;;;18.30;49.50;;;;;;5091445;28;19908;-63
2022/01/23 11:33:29;;;;;;;;;;;18.30;49.40;;;;;;5092618;28;19912;-63
2022/01/23 11:35:55;;;;;;;;;;;18.30;49.50;;;;;;5108276;28;19924;-63
2022/01/23 11:38:22;;;;;;;;;;;18.30;49.50;;;;;;5092596;28;19915;-63
2022/01/23 11:54:16;;;;;;;;;;;18.30;49.70;;;;;;5049993;28;20356;-63
2022/01/23 11:56:43;;;;;;;;;;;18.30;49.70;;;;;;5091078;28;19915;-64
2022/01/23 11:59:09;;;;;;;;;;;18.30;49.70;;;;;;5092418;28;20008;-64
2022/01/23 12:01:34;;;;;;;;;;;18.30;50.40;;;;;;5092516;28;19945;-64
2022/01/23 12:04:06;;;;;;;;;;;18.30;49.80;;;;;;5092037;28;19915;-63
2022/01/23 12:06:31;;;;;;;;;;;18.20;49.70;;;;;;5092371;28;19908;-63
2022/01/23 12:09:09;;;;;;;;;;;18.20;49.70;;;;;;5073517;28;19941;-63
2022/01/23 12:11:39;;;;;;;;;;;18.20;49.70;;;;;;5092304;28;20384;-63
2022/01/23 12:16:52;;;;;;;;;;;18.30;49.80;;;;;;5099255;28;19915;-64
2022/01/23 12:19:20;;;;;;;;;;;18.20;49.70;;;;;;5090665;28;19921;-63
2022/01/23 12:21:46;;;;;;;;;;;18.20;49.70;;;;;;5092281;28;19943;-65
2022/01/23 12:24:14;;;;;;;;;;;18.20;49.70;;;;;;5090238;28;19947;-64
2022/01/23 12:26:40;;;;;;;;;;;18.20;49.80;;;;;;5074079;28;19916;-63
2022/01/23 12:29:09;;;;;;;;;;;18.20;49.80;;;;;;5090534;28;20273;-63
2022/01/23 12:31:36;;;;;;;;;;;18.10;49.80;;;;;;5073853;28;19999;-63
2022/01/23 12:34:02;;;;;;;;;;;18.20;49.90;;;;;;5091802;28;19916;-63
2022/01/23 12:36:31;;;;;;;;;;;18.10;49.80;;;;;;5074025;28;19915;-63
2022/01/23 12:38:58;;;;;;;;;;;18.20;49.80;;;;;;5094483;28;19961;-63
2022/01/23 12:41:26;;;;;;;;;;;18.20;49.80;;;;;;5095880;28;20392;-64
2022/01/23 12:43:53;;;;;;;;;;;18.20;49.70;;;;;;5094216;28;19908;-63
2022/01/23 12:46:22;;;;;;;;;;;18.20;49.80;;;;;;5077486;28;20019;-63
2022/01/23 12:48:49;;;;;;;;;;;18.20;49.80;;;;;;5094408;28;20019;-63
2022/01/23 12:51:17;;;;;;;;;;;18.20;49.80;;;;;;5095600;28;19912;-64
2022/01/23 12:53:45;;;;;;;;;;;18.20;49.80;;;;;;5094954;28;19912;-63
2022/01/23 12:56:12;;;;;;;;;;;18.10;49.70;;;;;;5094338;28;19908;-63
2022/01/23 12:58:38;;;;;;;;;;;18.10;49.80;;;;;;5095367;28;19912;-63
2022/01/23 13:01:04;;;;;;;;;;;18.10;49.80;;;;;;5094229;28;19918;-63
2022/01/23 13:03:29;;;;;;;;;;;18.10;49.80;;;;;;5093911;28;19935;-64
2022/01/23 13:05:55;;;;;;;;;;;18.20;50.50;;;;;;5110989;28;19908;-64
2022/01/23 13:08:25;;;;;;;;;;;18.10;49.80;;;;;;5077169;28;19908;-64
2022/01/23 13:11:19;;;;;;;;;;;18.10;49.80;;;;;;5100817;28;20360;-63
2022/01/23 13:13:51;;;;;;;;;;;18.20;49.80;;;;;;5095048;27;19969;-64
2022/01/23 13:16:31;;;;;;;;;;;18.20;49.80;;;;;;5127898;27;19908;-64
2022/01/23 13:30:39;;;;;;;;;;;18.20;49.80;;;;;;5093751;28;20417;-63
2022/01/23 13:33:01;;;;;;;;;;;18.20;49.90;;;;;;5092890;28;20428;-63
2022/01/23 13:35:30;;;;;;;;;;;18.20;49.80;;;;;;5093469;28;20431;-63
2022/01/23 13:37:58;;;;;;;;;;;18.20;49.80;;;;;;5093577;28;19969;-63
2022/01/23 13:40:28;;;;;;;;;;;18.20;49.90;;;;;;5093901;28;20012;-63
2022/01/23 13:59:11;;;;;;;;;;;18.20;49.90;;;;;;5093153;28;19915;-64
2022/01/23 14:02:06;;;;;;;;;;;18.20;49.90;;;;;;5093246;28;20372;-63
2022/01/23 14:04:35;;;;;;;;;;;18.10;49.80;;;;;;5094000;28;20384;-63
2022/01/23 14:07:01;;;;;;;;;;;18.10;49.90;;;;;;5092873;28;20296;-63
2022/01/23 14:09:27;;;;;;;;;;;18.10;49.80;;;;;;5092303;28;19908;-64
2022/01/23 14:11:53;;;;;;;;;;;18.10;49.80;;;;;;5075960;28;20001;-63
2022/01/23 14:14:22;;;;;;;;;;;18.10;49.90;;;;;;5093812;28;19916;-64
2022/01/23 14:16:49;;;;;;;;;;;18.10;49.80;;;;;;5092718;28;19908;-64
2022/01/23 14:19:24;;;;;;;;;;;18.10;49.90;;;;;;5092395;28;20011;-63
2022/01/23 14:21:51;;;;;;;;;;;18.10;49.90;;;;;;5092771;28;20417;-63
2022/01/23 14:24:26;;;;;;;;;;;18.10;49.90;;;;;;5091942;28;19908;-64
2022/01/23 14:26:58;;;;;;;;;;;18.10;50.00;;;;;;5093853;28;19911;-63
2022/01/23 14:29:24;;;;;;;;;;;18.10;49.90;;;;;;5093515;28;19920;-63
2022/01/23 14:32:38;;;;;;;;;;;18.10;50.00;;;;;;5092493;28;19912;-63
2022/01/23 14:35:05;;;;;;;;;;;18.10;50.00;;;;;;5074844;28;19986;-63
2022/01/23 14:37:30;;;;;;;;;;;18.10;49.90;;;;;;5092456;28;19957;-63
2022/01/23 14:40:12;;;;;;;;;;;18.10;50.00;;;;;;5093095;28;19912;-63
2022/01/23 14:42:38;;;;;;;;;;;18.10;49.90;;;;;;5093632;28;19960;-63
2022/01/23 14:45:04;;;;;;;;;;;18.10;50.00;;;;;;5092123;28;20010;-64
2022/01/23 14:47:36;;;;;;;;;;;18.10;49.90;;;;;;5093707;28;19916;-64
2022/01/23 14:50:04;;;;;;;;;;;18.10;49.90;;;;;;5092047;28;19909;-64
2022/01/23 14:52:30;;;;;;;;;;;18.10;49.90;;;;;;5092042;28;19916;-63
2022/01/23 14:54:56;;;;;;;;;;;18.00;49.90;;;;;;5091469;28;20330;-64
2022/01/23 14:57:22;;;;;;;;;;;18.00;49.90;;;;;;5091902;28;19923;-63
2022/01/23 14:59:48;;;;;;;;;;;18.00;49.90;;;;;;5091833;28;20345;-65
2022/01/23 15:02:13;;;;;;;;;;;18.00;49.90;;;;;;5125805;27;19993;-63
2022/01/23 15:04:40;;;;;;;;;;;18.00;50.00;;;;;;5091564;28;19912;-63
2022/01/23 15:07:07;;;;;;;;;;;18.00;49.90;;;;;;5091849;28;20311;-64
2022/01/23 15:09:33;;;;;;;;;;;18.00;49.90;;;;;;5092564;28;19908;-64
2022/01/23 15:11:58;;;;;;;;;;;18.10;49.90;;;;;;5091610;28;20277;-63
2022/01/23 15:14:24;;;;;;;;;;;18.00;49.90;;;;;;5125499;27;19923;-63
2022/01/23 15:16:50;;;;;;;;;;;18.00;49.90;;;;;;5074783;28;19916;-63
2022/01/23 15:19:16;;;;;;;;;;;18.00;49.90;;;;;;5092602;28;19942;-63
2022/01/23 15:21:41;;;;;;;;;;;18.00;49.80;;;;;;5091649;28;20308;-63
2022/01/23 15:24:07;;;;;;;;;;;18.00;49.80;;;;;;5090900;28;19912;-63
2022/01/23 15:26:34;;;;;;;;;;;18.00;49.70;;;;;;5092787;28;19926;-63
2022/01/23 15:29:00;;;;;;;;;;;18.10;49.80;;;;;;5092647;28;19966;-64
2022/01/23 15:31:25;;;;;;;;;;;18.00;49.70;;;;;;5092745;28;19943;-63
2022/01/23 15:33:51;;;;;;;;;;;18.00;49.70;;;;;;5092456;28;19919;-63
2022/01/23 15:36:16;;;;;;;;;;;18.00;49.70;;;;;;5091344;28;19916;-63
2022/01/23 15:38:44;;;;;;;;;;;18.10;49.80;;;;;;5092162;28;19908;-63
2022/01/23 15:41:10;;;;;;;;;;;18.10;49.80;;;;;;5125470;27;19961;-65
2022/01/23 15:43:35;;;;;;;;;;;18.00;49.70;;;;;;5091118;28;19908;-63
2022/01/23 15:46:01;;;;;;;;;;;18.00;49.70;;;;;;5092483;28;20364;-63
2022/01/23 15:48:30;;;;;;;;;;;18.00;49.60;;;;;;5091309;28;19948;-63
2022/01/23 15:50:59;;;;;;;;;;;18.00;49.70;;;;;;5092459;28;19916;-63
2022/01/23 15:53:24;;;;;;;;;;;18.00;49.70;;;;;;5091230;28;19912;-63
2022/01/23 15:55:50;;;;;;;;;;;18.00;49.70;;;;;;5073901;28;19920;-64
2022/01/23 15:58:15;;;;;;;;;;;18.00;49.70;;;;;;5091095;28;19908;-63
2022/01/23 16:00:41;;;;;;;;;;;18.00;49.60;;;;;;5092170;28;20322;-63
2022/01/23 16:03:06;;;;;;;;;;;18.10;49.70;;;;;;5091120;28;19908;-63
2022/01/23 16:05:31;;;;;;;;;;;18.00;49.60;;;;;;5092339;28;19920;-63
2022/01/23 16:07:57;;;;;;;;;;;18.00;49.60;;;;;;5074122;28;19961;-64
2022/01/23 16:10:22;;;;;;;;;;;18.00;49.60;;;;;;5091809;28;19909;-64
2022/01/23 16:12:48;;;;;;;;;;;18.00;49.60;;;;;;5093751;28;19957;-64
2022/01/23 16:15:15;;;;;;;;;;;18.00;49.60;;;;;;5096281;28;19916;-64
2022/01/23 16:17:40;;;;;;;;;;;18.00;49.60;;;;;;5096779;28;19916;-64
2022/01/23 16:20:06;;;;;;;;;;;18.00;49.60;;;;;;5094639;28;20270;-64
2022/01/23 16:22:31;;;;;;;;;;;18.00;49.60;;;;;;5095140;28;19942;-63
2022/01/23 16:24:57;;;;;;;;;;;18.00;49.60;;;;;;5111480;28;19931;-63
2022/01/23 16:27:22;;;;;;;;;;;18.00;49.60;;;;;;5111831;28;19915;-63
2022/01/23 16:29:48;;;;;;;;;;;18.00;49.60;;;;;;5094803;28;19947;-63
2022/01/23 16:32:15;;;;;;;;;;;18.00;49.60;;;;;;5095670;28;21264;-64
2022/01/23 16:34:40;;;;;;;;;;;18.00;50.20;;;;;;5094508;28;20008;-64
2022/01/23 16:37:06;;;;;;;;;;;18.00;49.60;;;;;;5094741;28;19908;-65
2022/01/23 16:39:32;;;;;;;;;;;18.00;49.50;;;;;;5095550;28;19912;-65
2022/01/23 16:41:57;;;;;;;;;;;18.00;49.40;;;;;;5094813;28;20001;-65
2022/01/23 16:44:23;;;;;;;;;;;18.00;49.40;;;;;;5095724;28;19912;-65
2022/01/23 16:46:48;;;;;;;;;;;18.00;49.40;;;;;;5095790;28;19995;-64
2022/01/23 16:49:14;;;;;;;;;;;18.00;49.40;;;;;;5077893;28;19918;-64
2022/01/23 16:51:39;;;;;;;;;;;18.00;49.40;;;;;;5077465;28;19916;-65
2022/01/23 16:54:06;;;;;;;;;;;18.00;49.40;;;;;;5094947;28;19912;-64
2022/01/23 16:56:31;;;;;;;;;;;18.00;49.40;;;;;;5094271;28;20387;-64
2022/01/23 16:58:56;;;;;;;;;;;18.00;50.00;;;;;;5095497;28;19908;-64
2022/01/23 17:01:22;;;;;;;;;;;18.00;49.40;;;;;;5111259;28;19966;-64
2022/01/23 17:03:47;;;;;;;;;;;18.00;49.50;;;;;;5093957;28;19915;-64
2022/01/23 17:06:14;;;;;;;;;;;18.00;49.50;;;;;;5110973;28;19955;-64
2022/01/23 17:08:40;;;;;;;;;;;18.00;49.40;;;;;;5094823;28;19916;-64
2022/01/23 17:11:05;;;;;;;;;;;18.00;49.40;;;;;;5095332;28;19908;-64
2022/01/23 17:13:31;;;;;;;;;;;18.00;49.40;;;;;;5095179;28;19908;-64
2022/01/23 17:15:56;;;;;;;;;;;18.00;49.40;;;;;;5094111;28;19994;-64
2022/01/23 17:18:21;;;;;;;;;;;18.00;49.40;;;;;;5093972;28;19908;-64
2022/01/23 17:20:47;;;;;;;;;;;18.00;49.40;;;;;;5127770;27;19956;-64
2022/01/23 17:23:12;;;;;;;;;;;18.00;49.40;;;;;;5094920;28;19919;-64
2022/01/23 17:25:38;;;;;;;;;;;18.00;49.40;;;;;;5093363;28;19908;-63
2022/01/23 17:28:03;;;;;;;;;;;18.00;49.40;;;;;;5094975;28;19912;-63